Highland Lakes, NJ (07422)

1:45 AM EDT on August 31, 2015 (GMT -0400)
Williamsville | | Change Station
CLOSE
Current Station
Personal Weather Station
Location: Vernon, NJ
Elevation: 1300 ft
Nearby Weather Stations

Elev 1300 ft 41.17 °N, 74.48 °W | Updated 15 seconds ago

Mostly Cloudy
Mostly Cloudy
70.9 °F
Feels Like 70.9 °F
N
0.0
Wind Variable Wind from North
Gusts 0.7 mph

Today
High -- | Low -- °F
--% Chance of Precip.
Yesterday
High -- | Low -- °F
Precip. -- in
6:23 AM 7:32 PM
Full, 97% visible
Pressure 30.05 in
Visibility 3.0 miles
Clouds Scattered Clouds 6500 ft
Overcast 8500 ft
Dew Point 66 °F
Humidity 85%
Rainfall 0.00 in
Snow Depth Not available.
UV 0 out of 12
Pollen 10.30 out of 12
Air Quality Not available.
Flu Activity Not available.
METAR KFWN 310508Z AUTO 00000KT 3SM BR SCT065 OVC085 21/19 A3005 RMK AO2 T02060194
Pressure 30.05 in
Visibility 3.0 miles
Clouds Scattered Clouds 6500 ft
Overcast 8500 ft
Dew Point 66 °F
Humidity 85%
Rainfall 0.00 in
Snow Depth Not available.
UV 0 out of 12
Pollen 10.30 out of 12
Air Quality Not available.
Flu Activity Not available.
METAR KFWN 310508Z AUTO 00000KT 3SM BR SCT065 OVC085 21/19 A3005 RMK AO2 T02060194
Nowcast | as of 1:05 am EDT on August 31, 2015

At 104 am EDT...Doppler radar indicated a shower...over Hainesville...or over Montague moving east at 25 mph. Locations impacted include... Montague...Sussex...Hainesville...Vernon Valley...High Point and Highland Lake. Lat...Lon 4121 7438 4116 7441 4117 7488 4123 7487 4128 7484 4132 7479 4133 7476 4135 7475 4135 7472 4136 7470

×

10-Day Weather Forecast

×

Almanac

Astronomy

Aug. 31, 2015 Rise Set
Actual Time
Civil Twilight
Nautical Twilight
Astronomical Twilight
Moon
Length of Visible Light
Length of Day
Tomorrow will be .
, % of the Moon is Illuminated

Today's Extremes

State Highs State Lows

Community

WunderPhotos

Upload Photos

1,851,215 photos uploaded!

WunderBlogs® & News

Nearby

Air Quality

  Air Quality AQ Index Pollutant
Not available.

Snow Depth

Station Depth Elevation

Earthquake Activity

City Distance Mag. Time & Date
Minimum magnitude displayed is 2.5.

Coastal Water Temperatures

Place Temperature

Stations

Nearby Weather Stations

Station Location Temp. Windchill Dew Point Humidity Wind Precip. Elev Updated Type